Time;durP1;ratioP1;P1;durP2;ratioP2;P2;SDS_P1;SDS_P2;PMS_P1;PMS_P2;Temp;Humidity;BMP_temperature;BMP_pressure;BME280_temperature;BME280_humidity;BME280_pressure;Samples;Min_cycle;Max_cycle;Signal;HPM_P1;HPM_P2
2023/11/15 00:00:36;;;;;;;87.97;49.53;;;;;;;;;;4394109;32;318243;-85
2023/11/15 00:03:03;;;;;;;87.97;49.40;;;;;;;;;;4374949;32;358105;-86
2023/11/15 00:05:30;;;;;;;85.97;50.93;;;;;;;;;;4384171;32;318110;-84
2023/11/15 00:07:56;;;;;;;80.27;49.67;;;;;;;;;;4374367;32;318887;-85
2023/11/15 00:10:24;;;;;;;86.73;49.23;;;;;;;;;;4382557;32;317762;-85
2023/11/15 00:12:52;;;;;;;79.97;48.93;;;;;;;;;;4385061;32;318372;-83
2023/11/15 00:15:19;;;;;;;77.93;47.37;;;;;;;;;;4366111;32;417223;-84
2023/11/15 00:17:46;;;;;;;76.97;47.47;;;;;;;;;;4378790;32;353389;-84
2023/11/15 00:20:13;;;;;;;77.83;44.70;;;;;;;;;;4368362;32;318635;-84
2023/11/15 00:22:40;;;;;;;86.00;48.37;;;;;;;;;;4382750;32;318552;-84
2023/11/15 00:25:08;;;;;;;101.17;52.50;;;;;;;;;;4372806;32;353878;-84
2023/11/15 00:27:35;;;;;;;90.87;54.17;;;;;;;;;;4393424;32;319106;-84
2023/11/15 00:30:05;;;;;;;97.00;54.00;;;;;;;;;;4381251;32;343482;-84
2023/11/15 00:32:31;;;;;;;93.33;53.07;;;;;;;;;;4393343;32;318160;-84
2023/11/15 00:34:58;;;;;;;83.23;50.97;;;;;;;;;;4378344;32;318707;-84
2023/11/15 00:37:25;;;;;;;84.13;50.00;;;;;;;;;;4383036;32;318387;-84
2023/11/15 00:39:52;;;;;;;101.27;54.07;;;;;;;;;;4366125;32;399464;-85
2023/11/15 00:42:19;;;;;;;141.37;63.00;;;;;;;;;;4378220;32;318973;-84
2023/11/15 00:44:45;;;;;;;133.60;64.93;;;;;;;;;;4377509;32;319540;-84
2023/11/15 00:47:14;;;;;;;121.57;62.80;;;;;;;;;;4359593;32;319250;-84
2023/11/15 00:49:43;;;;;;;140.37;64.77;;;;;;;;;;4375579;32;319599;-84
2023/11/15 00:52:12;;;;;;;106.40;65.07;;;;;;;;;;4366839;32;319723;-83
2023/11/15 00:54:39;;;;;;;102.63;62.37;;;;;;;;;;4377598;32;319641;-84
2023/11/15 00:57:05;;;;;;;124.57;71.73;;;;;;;;;;4360440;32;319340;-85
2023/11/15 00:59:37;;;;;;;121.93;70.20;;;;;;;;;;4363741;32;319948;-84
2023/11/15 01:02:05;;;;;;;128.47;70.37;;;;;;;;;;4336675;32;320074;-84
2023/11/15 01:04:33;;;;;;;123.70;74.63;;;;;;;;;;4351636;32;319613;-84
2023/11/15 01:07:00;;;;;;;131.77;78.50;;;;;;;;;;4352320;32;320341;-84
2023/11/15 01:09:27;;;;;;;187.47;86.90;;;;;;;;;;4371892;32;319229;-84
2023/11/15 01:11:55;;;;;;;165.17;79.10;;;;;;;;;;4352205;32;319433;-85
2023/11/15 01:14:22;;;;;;;142.20;76.17;;;;;;;;;;4352659;32;319547;-84
2023/11/15 01:16:48;;;;;;;127.50;68.00;;;;;;;;;;4349509;32;319483;-84
2023/11/15 01:19:16;;;;;;;95.97;58.50;;;;;;;;;;4327318;32;319642;-85
2023/11/15 01:21:44;;;;;;;102.60;55.30;;;;;;;;;;4344310;32;318085;-84
2023/11/15 01:24:11;;;;;;;92.60;52.23;;;;;;;;;;4335271;32;319166;-84
2023/11/15 01:26:37;;;;;;;88.87;54.67;;;;;;;;;;4345373;32;317682;-84
2023/11/15 01:29:04;;;;;;;94.20;54.47;;;;;;;;;;4329013;32;318409;-84
2023/11/15 01:31:31;;;;;;;95.90;55.50;;;;;;;;;;4344214;32;318328;-85
2023/11/15 01:33:58;;;;;;;94.40;55.10;;;;;;;;;;4336547;32;318157;-84
2023/11/15 01:36:25;;;;;;;93.97;54.53;;;;;;;;;;4347041;32;318827;-84
2023/11/15 01:38:53;;;;;;;98.07;55.73;;;;;;;;;;4348295;32;318668;-85
2023/11/15 01:41:20;;;;;;;109.37;58.87;;;;;;;;;;4353454;32;318715;-84
2023/11/15 01:43:46;;;;;;;102.53;59.40;;;;;;;;;;4360160;32;319223;-84
2023/11/15 01:46:15;;;;;;;101.77;59.17;;;;;;;;;;4348626;32;319275;-84
2023/11/15 01:48:42;;;;;;;97.97;57.50;;;;;;;;;;4361414;32;335237;-84
2023/11/15 01:51:10;;;;;;;95.53;56.43;;;;;;;;;;4343618;32;318467;-84
2023/11/15 01:53:38;;;;;;;90.27;51.70;;;;;;;;;;4360456;32;318832;-84
2023/11/15 01:56:08;;;;;;;83.43;49.97;;;;;;;;;;4352170;32;318647;-84
2023/11/15 01:58:36;;;;;;;99.77;53.97;;;;;;;;;;4362071;32;318691;-84
2023/11/15 02:01:05;;;;;;;87.00;48.80;;;;;;;;;;4342656;32;318431;-84
2023/11/15 02:03:31;;;;;;;71.13;47.90;;;;;;;;;;4359970;32;317635;-84
2023/11/15 02:06:00;;;;;;;85.90;47.00;;;;;;;;;;4351072;32;318381;-84
2023/11/15 02:08:27;;;;;;;75.33;43.87;;;;;;;;;;4361999;32;318191;-84
2023/11/15 02:10:54;;;;;;;77.20;43.50;;;;;;;;;;4357640;32;318434;-85
2023/11/15 02:13:25;;;;;;;84.20;43.20;;;;;;;;;;4352179;32;318790;-84
2023/11/15 02:15:56;;;;;;;61.53;37.40;;;;;;;;;;4354928;32;318587;-86
2023/11/15 02:18:23;;;;;;;66.90;38.40;;;;;;;;;;4360072;32;318726;-84
2023/11/15 02:20:50;;;;;;;64.40;36.37;;;;;;;;;;4360308;32;318411;-84
2023/11/15 02:23:20;;;;;;;79.90;39.40;;;;;;;;;;4347605;32;419308;-84
2023/11/15 02:25:50;;;;;;;68.13;37.50;;;;;;;;;;4360712;32;318278;-84
2023/11/15 02:28:17;;;;;;;66.20;40.00;;;;;;;;;;4347307;32;417150;-84
2023/11/15 02:30:44;;;;;;;64.70;38.57;;;;;;;;;;4362403;32;318395;-84
2023/11/15 02:33:11;;;;;;;63.70;36.60;;;;;;;;;;4345048;32;318555;-84
2023/11/15 02:35:37;;;;;;;48.87;28.57;;;;;;;;;;4357758;32;318765;-84
2023/11/15 02:38:05;;;;;;;48.07;29.27;;;;;;;;;;4348885;32;359238;-84
2023/11/15 02:40:32;;;;;;;51.70;30.63;;;;;;;;;;4361869;32;318261;-84
2023/11/15 02:43:00;;;;;;;45.23;27.73;;;;;;;;;;4348601;32;318211;-84
2023/11/15 02:45:27;;;;;;;46.60;27.00;;;;;;;;;;4360668;32;318520;-84
2023/11/15 02:47:54;;;;;;;32.77;22.50;;;;;;;;;;4351471;32;318903;-84
2023/11/15 02:50:21;;;;;;;38.83;23.63;;;;;;;;;;4361344;32;318458;-84
2023/11/15 02:52:48;;;;;;;34.20;23.53;;;;;;;;;;4361247;32;318483;-84
2023/11/15 02:55:15;;;;;;;34.17;21.30;;;;;;;;;;4342690;32;318471;-84
2023/11/15 02:57:42;;;;;;;35.93;20.70;;;;;;;;;;4358608;32;324913;-84
2023/11/15 03:00:12;;;;;;;33.43;21.07;;;;;;;;;;4351135;32;318307;-84
2023/11/15 03:02:38;;;;;;;52.37;32.77;;;;;;;;;;4359761;32;318352;-84
2023/11/15 03:05:06;;;;;;;41.40;25.97;;;;;;;;;;4343191;32;318361;-85
2023/11/15 03:07:33;;;;;;;39.63;23.83;;;;;;;;;;4360990;32;335047;-84
2023/11/15 03:10:00;;;;;;;40.67;23.37;;;;;;;;;;4348373;32;326826;-84
2023/11/15 03:12:27;;;;;;;40.43;24.20;;;;;;;;;;4360166;32;318769;-83
2023/11/15 03:14:54;;;;;;;44.47;27.97;;;;;;;;;;4349583;32;318533;-84
2023/11/15 03:17:22;;;;;;;35.50;21.27;;;;;;;;;;4352216;32;318565;-85
2023/11/15 03:19:49;;;;;;;33.27;22.30;;;;;;;;;;4360224;32;318454;-84
2023/11/15 03:22:17;;;;;;;33.97;20.93;;;;;;;;;;4349520;32;346936;-85
2023/11/15 03:24:45;;;;;;;29.27;20.03;;;;;;;;;;4360957;32;318481;-83
2023/11/15 03:27:12;;;;;;;34.27;19.30;;;;;;;;;;4341434;32;318513;-85
2023/11/15 03:29:38;;;;;;;58.63;35.10;;;;;;;;;;4360775;32;318458;-83
2023/11/15 03:32:05;;;;;;;45.20;30.40;;;;;;;;;;4352182;32;353148;-86
2023/11/15 03:34:35;;;;;;;42.97;24.90;;;;;;;;;;4362407;32;318455;-85
2023/11/15 03:37:04;;;;;;;32.07;22.20;;;;;;;;;;4346952;32;317982;-86
2023/11/15 03:39:32;;;;;;;35.53;22.07;;;;;;;;;;4363943;32;317604;-85
2023/11/15 03:42:00;;;;;;;35.83;22.17;;;;;;;;;;4353017;32;317539;-85
2023/11/15 03:44:26;;;;;;;37.97;22.97;;;;;;;;;;4362291;32;319266;-83
2023/11/15 03:46:53;;;;;;;38.97;22.57;;;;;;;;;;4351489;32;401670;-87
2023/11/15 03:49:20;;;;;;;36.30;23.33;;;;;;;;;;4357432;32;318472;-85
2023/11/15 03:51:49;;;;;;;25.13;18.17;;;;;;;;;;4364066;32;318689;-83
2023/11/15 03:54:16;;;;;;;29.20;19.67;;;;;;;;;;4351701;32;318471;-83
2023/11/15 03:56:43;;;;;;;31.13;18.23;;;;;;;;;;4360277;32;318842;-85
2023/11/15 03:59:09;;;;;;;37.80;19.53;;;;;;;;;;4346169;32;318532;-83
2023/11/15 04:01:36;;;;;;;27.77;19.03;;;;;;;;;;4363994;32;317898;-86
2023/11/15 04:04:03;;;;;;;30.70;18.87;;;;;;;;;;4353378;32;318516;-86
2023/11/15 04:06:30;;;;;;;30.47;19.77;;;;;;;;;;4366043;32;318047;-85
2023/11/15 04:08:59;;;;;;;31.33;20.37;;;;;;;;;;4360390;32;318802;-84
2023/11/15 04:11:26;;;;;;;31.80;19.93;;;;;;;;;;4366942;32;319005;-84
2023/11/15 04:13:54;;;;;;;35.63;19.80;;;;;;;;;;4361194;32;318468;-86
2023/11/15 04:16:21;;;;;;;43.77;21.90;;;;;;;;;;4368730;32;352666;-84
2023/11/15 04:18:48;;;;;;;39.90;24.53;;;;;;;;;;4361920;32;318515;-84
2023/11/15 04:21:15;;;;;;;44.53;21.93;;;;;;;;;;4344484;32;318880;-84
2023/11/15 04:23:43;;;;;;;39.53;23.87;;;;;;;;;;4362754;32;318220;-84
2023/11/15 04:26:12;;;;;;;36.57;23.93;;;;;;;;;;4351740;32;318931;-84
2023/11/15 04:28:39;;;;;;;37.77;23.03;;;;;;;;;;4360651;32;318588;-84
2023/11/15 04:31:06;;;;;;;44.63;23.87;;;;;;;;;;4342199;32;348807;-83
2023/11/15 04:33:33;;;;;;;43.00;26.50;;;;;;;;;;4362840;32;318558;-83
2023/11/15 04:36:00;;;;;;;56.33;31.90;;;;;;;;;;4351683;32;318814;-83
2023/11/15 04:38:27;;;;;;;46.20;27.77;;;;;;;;;;4351434;32;318376;-86
2023/11/15 04:40:55;;;;;;;48.90;29.43;;;;;;;;;;4352041;32;318235;-83
2023/11/15 04:43:24;;;;;;;34.30;23.27;;;;;;;;;;4361921;32;318452;-83
2023/11/15 04:45:51;;;;;;;44.53;26.23;;;;;;;;;;4344831;32;318545;-82
2023/11/15 04:48:18;;;;;;;72.07;35.33;;;;;;;;;;4363425;32;317472;-85
2023/11/15 04:50:45;;;;;;;85.43;42.13;;;;;;;;;;4349571;32;318478;-86
2023/11/15 04:53:12;;;;;;;99.57;43.77;;;;;;;;;;4361722;32;318190;-83
2023/11/15 04:55:39;;;;;;;78.53;39.77;;;;;;;;;;4356132;32;318336;-87
2023/11/15 04:58:06;;;;;;;108.93;51.20;;;;;;;;;;4354652;32;317536;-83
2023/11/15 05:00:36;;;;;;;136.83;64.87;;;;;;;;;;4360880;32;344522;-85
2023/11/15 05:03:03;;;;;;;102.20;48.53;;;;;;;;;;4351602;32;319553;-85
2023/11/15 05:05:30;;;;;;;101.70;47.33;;;;;;;;;;4362786;32;318760;-83
2023/11/15 05:07:57;;;;;;;87.57;42.20;;;;;;;;;;4342070;32;319048;-84
2023/11/15 05:10:24;;;;;;;93.67;43.07;;;;;;;;;;4361690;32;318409;-83
2023/11/15 05:12:51;;;;;;;103.53;46.23;;;;;;;;;;4351903;32;318074;-84
2023/11/15 05:15:18;;;;;;;89.73;42.37;;;;;;;;;;4362285;32;319360;-85
2023/11/15 05:17:47;;;;;;;83.93;41.90;;;;;;;;;;4349129;32;318449;-84
2023/11/15 05:20:14;;;;;;;88.23;42.03;;;;;;;;;;4361151;32;318102;-85
2023/11/15 05:22:40;;;;;;;84.10;43.33;;;;;;;;;;4351611;32;332065;-85
2023/11/15 05:25:07;;;;;;;96.03;45.33;;;;;;;;;;4362477;32;318419;-85
2023/11/15 05:27:34;;;;;;;82.80;42.90;;;;;;;;;;4360570;32;318331;-85
2023/11/15 05:30:01;;;;;;;80.93;42.93;;;;;;;;;;4344753;32;318250;-85
2023/11/15 05:32:28;;;;;;;109.53;49.00;;;;;;;;;;4361463;32;318458;-88
2023/11/15 05:34:56;;;;;;;116.80;49.57;;;;;;;;;;4348361;32;319492;-86
2023/11/15 05:37:23;;;;;;;104.53;47.87;;;;;;;;;;4360108;32;319163;-84
2023/11/15 05:39:50;;;;;;;112.07;48.80;;;;;;;;;;4342353;32;319626;-84
2023/11/15 05:42:17;;;;;;;110.13;50.23;;;;;;;;;;4361246;32;319075;-84
2023/11/15 05:44:44;;;;;;;97.50;48.37;;;;;;;;;;4340281;32;319727;-85
2023/11/15 05:47:11;;;;;;;104.23;47.90;;;;;;;;;;4346100;32;318143;-84
2023/11/15 05:49:38;;;;;;;96.77;47.43;;;;;;;;;;4351754;32;319195;-84
2023/11/15 05:52:06;;;;;;;96.13;45.97;;;;;;;;;;4325412;32;419097;-84
2023/11/15 05:54:33;;;;;;;101.93;47.97;;;;;;;;;;4358860;32;318577;-84
2023/11/15 05:57:00;;;;;;;102.43;48.10;;;;;;;;;;4347342;32;319288;-86
2023/11/15 05:59:27;;;;;;;115.33;55.37;;;;;;;;;;4360129;32;319437;-85
2023/11/15 06:01:54;;;;;;;139.13;61.70;;;;;;;;;;4345004;32;319631;-85
2023/11/15 06:04:22;;;;;;;120.53;56.67;;;;;;;;;;4359493;32;319652;-85
2023/11/15 06:06:48;;;;;;;119.37;58.10;;;;;;;;;;4357290;32;319404;-83
2023/11/15 06:09:17;;;;;;;138.43;64.37;;;;;;;;;;4374273;32;319580;-83
2023/11/15 06:11:44;;;;;;;119.53;57.20;;;;;;;;;;4348277;32;319452;-81
2023/11/15 06:14:14;;;;;;;96.93;49.00;;;;;;;;;;4359110;32;319697;-85
2023/11/15 06:16:41;;;;;;;103.70;49.67;;;;;;;;;;4350866;32;318583;-84
2023/11/15 06:19:08;;;;;;;104.17;51.10;;;;;;;;;;4359745;32;319305;-85
2023/11/15 06:21:37;;;;;;;98.80;48.77;;;;;;;;;;4361197;32;329691;-83
2023/11/15 06:24:05;;;;;;;103.27;53.77;;;;;;;;;;4346836;32;416862;-84
2023/11/15 06:26:37;;;;;;;98.47;52.37;;;;;;;;;;4359122;32;319676;-85
2023/11/15 06:29:05;;;;;;;97.07;45.80;;;;;;;;;;4350147;32;417239;-84
2023/11/15 06:31:36;;;;;;;109.80;50.20;;;;;;;;;;4359093;32;346524;-86
2023/11/15 06:34:04;;;;;;;106.07;49.77;;;;;;;;;;4343934;32;319994;-84
2023/11/15 06:36:36;;;;;;;92.00;49.97;;;;;;;;;;4360721;32;319061;-85
2023/11/15 06:39:05;;;;;;;96.10;48.37;;;;;;;;;;4351167;32;318483;-83
2023/11/15 06:41:34;;;;;;;87.30;48.33;;;;;;;;;;4359253;32;318297;-88
2023/11/15 06:44:04;;;;;;;114.10;52.87;;;;;;;;;;4339901;32;318393;-83
2023/11/15 06:46:31;;;;;;;96.97;45.73;;;;;;;;;;4359119;32;320023;-84
2023/11/15 06:48:58;;;;;;;94.97;46.00;;;;;;;;;;4347938;32;333452;-83
2023/11/15 06:51:25;;;;;;;100.17;48.30;;;;;;;;;;4360437;32;318168;-84
2023/11/15 06:53:57;;;;;;;98.93;52.97;;;;;;;;;;4340459;32;351433;-84
2023/11/15 06:56:24;;;;;;;98.30;53.47;;;;;;;;;;4359400;32;318771;-84
2023/11/15 06:58:51;;;;;;;102.00;52.47;;;;;;;;;;4348534;32;330631;-84
2023/11/15 07:01:21;;;;;;;89.67;49.63;;;;;;;;;;4356298;32;318826;-83
2023/11/15 07:03:49;;;;;;;88.87;48.17;;;;;;;;;;4351504;32;317824;-83
2023/11/15 07:06:16;;;;;;;78.13;46.77;;;;;;;;;;4365854;32;340626;-84
2023/11/15 07:08:42;;;;;;;79.30;46.17;;;;;;;;;;4379060;32;318915;-84
2023/11/15 07:11:09;;;;;;;76.23;46.50;;;;;;;;;;4388495;32;318424;-81
2023/11/15 07:13:36;;;;;;;86.80;47.83;;;;;;;;;;4389518;32;317499;-83
2023/11/15 07:16:04;;;;;;;88.23;47.37;;;;;;;;;;4369149;32;318396;-83
2023/11/15 07:18:33;;;;;;;72.13;36.90;;;;;;;;;;4371914;32;318319;-83
2023/11/15 07:21:00;;;;;;;62.80;36.60;;;;;;;;;;4376929;32;318640;-83
2023/11/15 07:23:26;;;;;;;79.17;43.70;;;;;;;;;;4388143;32;318180;-82
2023/11/15 07:25:55;;;;;;;66.80;42.03;;;;;;;;;;4372839;32;318476;-83
2023/11/15 07:28:21;;;;;;;75.37;44.00;;;;;;;;;;4403609;32;317819;-84
2023/11/15 07:30:50;;;;;;;72.83;44.97;;;;;;;;;;4387659;32;318346;-85
2023/11/15 07:33:19;;;;;;;68.30;40.90;;;;;;;;;;4380514;32;335492;-86
2023/11/15 07:35:47;;;;;;;66.53;38.50;;;;;;;;;;4369590;32;318590;-86
2023/11/15 07:38:15;;;;;;;59.00;35.60;;;;;;;;;;4394108;32;318226;-87
2023/11/15 07:40:42;;;;;;;59.23;35.53;;;;;;;;;;4381636;32;318247;-85
2023/11/15 07:43:10;;;;;;;69.77;41.27;;;;;;;;;;4387623;32;317573;-85
2023/11/15 07:45:38;;;;;;;68.20;41.17;;;;;;;;;;4389012;32;319081;-85
2023/11/15 07:48:10;;;;;;;71.50;43.00;;;;;;;;;;4365570;32;417977;-87
2023/11/15 07:50:37;;;;;;;67.20;40.63;;;;;;;;;;4381959;32;318309;-86
2023/11/15 07:53:05;;;;;;;60.23;39.10;;;;;;;;;;4364778;32;418941;-89
2023/11/15 07:55:35;;;;;;;70.67;40.60;;;;;;;;;;4380710;32;318647;-87
2023/11/15 07:58:02;;;;;;;70.13;42.07;;;;;;;;;;4374734;32;318779;-85
2023/11/15 08:00:29;;;;;;;73.07;41.73;;;;;;;;;;4396398;32;318718;-85
2023/11/15 08:02:56;;;;;;;77.87;40.90;;;;;;;;;;4395024;32;324656;-85
2023/11/15 08:05:26;;;;;;;65.43;39.90;;;;;;;;;;4400546;32;319391;-89
2023/11/15 08:07:56;;;;;;;68.23;40.70;;;;;;;;;;4374171;32;318389;-88
2023/11/15 08:10:25;;;;;;;76.07;45.17;;;;;;;;;;4396579;32;318912;-85
2023/11/15 08:12:52;;;;;;;92.23;53.33;;;;;;;;;;4382076;32;319262;-85
2023/11/15 08:15:20;;;;;;;129.57;65.07;;;;;;;;;;4389431;32;319515;-84
2023/11/15 08:17:48;;;;;;;130.10;68.03;;;;;;;;;;4378088;32;320431;-85
2023/11/15 08:20:17;;;;;;;136.57;69.67;;;;;;;;;;4392552;32;319798;-84
2023/11/15 08:22:44;;;;;;;136.63;76.97;;;;;;;;;;4388723;32;361245;-85
2023/11/15 08:25:12;;;;;;;130.67;73.77;;;;;;;;;;4406176;32;320457;-84
2023/11/15 08:27:41;;;;;;;129.93;68.27;;;;;;;;;;4386676;32;320945;-88
2023/11/15 08:30:12;;;;;;;120.40;68.50;;;;;;;;;;4385200;32;320919;-85
2023/11/15 08:32:42;;;;;;;133.27;72.43;;;;;;;;;;4390715;32;320709;-87
2023/11/15 08:35:10;;;;;;;142.27;78.13;;;;;;;;;;4390539;32;320501;-86
2023/11/15 08:37:38;;;;;;;141.40;85.83;;;;;;;;;;4392589;32;320382;-85
2023/11/15 08:40:06;;;;;;;148.50;86.27;;;;;;;;;;4371053;32;421219;-86
2023/11/15 08:42:33;;;;;;;147.70;84.23;;;;;;;;;;4393195;32;320566;-86
2023/11/15 08:45:01;;;;;;;116.43;65.60;;;;;;;;;;4373302;32;321626;-85
2023/11/15 08:47:28;;;;;;;118.03;64.30;;;;;;;;;;4394413;32;320337;-86
2023/11/15 08:49:56;;;;;;;112.77;67.57;;;;;;;;;;4386271;32;331380;-89
2023/11/15 08:52:24;;;;;;;117.93;64.60;;;;;;;;;;4383711;32;329753;-83
2023/11/15 08:54:51;;;;;;;104.83;61.17;;;;;;;;;;4378460;32;319894;-82
2023/11/15 08:57:18;;;;;;;122.40;65.43;;;;;;;;;;4389092;32;319748;-85
2023/11/15 08:59:46;;;;;;;115.93;64.47;;;;;;;;;;4373402;32;320971;-81
2023/11/15 09:02:15;;;;;;;100.30;61.27;;;;;;;;;;4391408;32;319627;-83
2023/11/15 09:04:42;;;;;;;99.07;59.50;;;;;;;;;;4380366;32;320579;-88
2023/11/15 09:07:10;;;;;;;98.53;55.10;;;;;;;;;;4389368;32;319682;-85
2023/11/15 09:09:40;;;;;;;94.93;55.23;;;;;;;;;;4392102;32;318752;-86
2023/11/15 09:12:08;;;;;;;84.10;51.87;;;;;;;;;;4372512;32;418975;-86
2023/11/15 09:14:35;;;;;;;94.30;52.53;;;;;;;;;;4390180;32;319356;-87
2023/11/15 09:17:05;;;;;;;114.70;67.30;;;;;;;;;;4380426;32;336000;-83
2023/11/15 09:19:33;;;;;;;126.23;69.00;;;;;;;;;;4391783;32;319932;-84
2023/11/15 09:22:02;;;;;;;128.03;73.13;;;;;;;;;;4360091;32;353837;-85
2023/11/15 09:24:30;;;;;;;137.60;73.87;;;;;;;;;;4389621;32;319905;-86
2023/11/15 09:26:58;;;;;;;127.03;75.00;;;;;;;;;;4384056;32;320211;-84
2023/11/15 09:29:27;;;;;;;167.53;93.10;;;;;;;;;;4390498;32;320396;-86
2023/11/15 09:31:54;;;;;;;182.37;91.03;;;;;;;;;;4364995;32;320344;-83
2023/11/15 09:34:21;;;;;;;153.83;82.57;;;;;;;;;;4376414;32;320754;-85
2023/11/15 09:36:50;;;;;;;150.83;82.13;;;;;;;;;;4365965;32;319563;-86
2023/11/15 09:39:17;;;;;;;127.70;73.43;;;;;;;;;;4392543;32;320630;-87
2023/11/15 09:41:53;;;;;;;124.20;70.83;;;;;;;;;;4379546;32;353678;-83
2023/11/15 09:44:23;;;;;;;128.57;71.67;;;;;;;;;;4403843;32;20296;-85
2023/11/15 09:46:54;;;;;;;122.50;71.73;;;;;;;;;;4391644;32;20818;-88
2023/11/15 09:49:21;;;;;;;133.07;72.53;;;;;;;;;;4404817;32;20361;-85
2023/11/15 09:51:51;;;;;;;120.30;72.93;;;;;;;;;;4404613;32;20226;-86
2023/11/15 09:54:20;;;;;;;115.00;66.27;;;;;;;;;;4404258;32;20322;-86
2023/11/15 09:56:49;;;;;;;88.60;50.73;;;;;;;;;;4404725;32;20823;-83
2023/11/15 09:59:17;;;;;;;84.13;49.30;;;;;;;;;;4403838;32;20335;-85
2023/11/15 10:01:45;;;;;;;62.53;39.67;;;;;;;;;;4404455;32;20233;-85
2023/11/15 10:04:23;;;;;;;59.43;36.47;;;;;;;;;;4404292;32;20237;-86
2023/11/15 10:06:52;;;;;;;50.43;31.37;;;;;;;;;;4415517;32;20303;-84
2023/11/15 10:09:36;;;;;;;51.23;32.33;;;;;;;;;;4417785;32;20597;-85
2023/11/15 10:12:05;;;;;;;51.43;31.43;;;;;;;;;;4407609;32;20233;-87
2023/11/15 10:14:35;;;;;;;44.67;27.77;;;;;;;;;;4406510;32;20270;-86
2023/11/15 10:17:03;;;;;;;28.90;18.27;;;;;;;;;;4417234;32;20255;-87
2023/11/15 10:19:34;;;;;;;34.23;21.40;;;;;;;;;;4415978;32;20237;-85
2023/11/15 10:22:04;;;;;;;41.87;22.23;;;;;;;;;;4412169;32;20311;-85
2023/11/15 10:24:31;;;;;;;36.73;23.30;;;;;;;;;;4417335;32;20271;-84
2023/11/15 10:26:59;;;;;;;92.43;40.07;;;;;;;;;;4418430;32;20722;-85
2023/11/15 10:29:27;;;;;;;61.40;32.83;;;;;;;;;;4418364;32;20652;-86
2023/11/15 10:31:59;;;;;;;49.33;28.17;;;;;;;;;;4418149;32;20240;-84
2023/11/15 10:34:29;;;;;;;37.70;24.20;;;;;;;;;;4418053;32;20234;-84
2023/11/15 10:37:05;;;;;;;44.10;25.47;;;;;;;;;;4418268;32;20266;-84
2023/11/15 10:39:33;;;;;;;45.67;27.13;;;;;;;;;;4417743;32;20879;-85
2023/11/15 10:42:06;;;;;;;52.80;28.73;;;;;;;;;;4417965;32;20266;-85
2023/11/15 10:44:36;;;;;;;59.17;33.73;;;;;;;;;;4418190;32;20234;-85
2023/11/15 10:47:05;;;;;;;41.50;22.90;;;;;;;;;;4418696;32;20236;-85
2023/11/15 10:49:38;;;;;;;36.20;22.90;;;;;;;;;;4417808;32;20274;-85
2023/11/15 10:52:07;;;;;;;44.70;25.53;;;;;;;;;;4418695;32;20767;-84
2023/11/15 10:54:35;;;;;;;39.30;25.93;;;;;;;;;;4417988;32;20233;-84
2023/11/15 10:57:03;;;;;;;43.97;25.43;;;;;;;;;;4418066;32;20220;-85
2023/11/15 10:59:34;;;;;;;48.23;26.80;;;;;;;;;;4418415;32;20492;-84
2023/11/15 11:02:05;;;;;;;47.13;28.67;;;;;;;;;;4418362;32;20245;-85
2023/11/15 11:04:33;;;;;;;48.73;30.87;;;;;;;;;;4418154;32;20233;-84
2023/11/15 11:07:07;;;;;;;54.37;32.10;;;;;;;;;;4418396;32;20217;-83
2023/11/15 11:09:46;;;;;;;48.47;30.83;;;;;;;;;;4418462;32;20642;-83
2023/11/15 11:12:18;;;;;;;47.17;29.67;;;;;;;;;;4416100;32;20403;-85
2023/11/15 11:14:48;;;;;;;43.07;28.20;;;;;;;;;;4417477;32;20229;-84
2023/11/15 11:17:32;;;;;;;44.10;27.40;;;;;;;;;;4429342;32;20252;-84
2023/11/15 11:19:59;;;;;;;38.53;26.40;;;;;;;;;;4430755;32;20646;-87
2023/11/15 11:22:26;;;;;;;45.07;30.47;;;;;;;;;;4418674;32;20286;-85
2023/11/15 11:25:22;;;;;;;63.90;38.90;;;;;;;;;;4431006;32;20252;-84
2023/11/15 11:27:56;;;;;;;53.80;37.43;;;;;;;;;;4433060;32;20256;-83
2023/11/15 11:30:24;;;;;;;58.63;40.33;;;;;;;;;;4430505;32;20215;-82
2023/11/15 11:33:09;;;;;;;49.90;34.30;;;;;;;;;;4417693;32;20345;-83
2023/11/15 11:35:36;;;;;;;50.73;36.63;;;;;;;;;;4417790;32;20601;-83
2023/11/15 11:38:04;;;;;;;46.67;32.00;;;;;;;;;;4417539;32;20262;-86
2023/11/15 11:40:38;;;;;;;59.17;36.43;;;;;;;;;;4417008;32;20314;-85
2023/11/15 11:43:21;;;;;;;58.93;37.07;;;;;;;;;;4417900;32;20228;-86
2023/11/15 11:45:50;;;;;;;59.77;35.27;;;;;;;;;;4418029;32;20292;-85
2023/11/15 11:48:18;;;;;;;58.17;35.30;;;;;;;;;;4417512;32;20266;-84
2023/11/15 11:50:58;;;;;;;50.77;30.53;;;;;;;;;;4418807;32;20213;-88
2023/11/15 11:53:25;;;;;;;50.13;29.47;;;;;;;;;;4421407;32;20743;-88
2023/11/15 11:55:56;;;;;;;26.67;18.90;;;;;;;;;;4420813;32;20291;-84
2023/11/15 11:58:26;;;;;;;26.00;16.63;;;;;;;;;;4421043;32;20783;-82
2023/11/15 12:01:00;;;;;;;20.03;13.90;;;;;;;;;;4422904;32;20216;-86
2023/11/15 12:03:27;;;;;;;22.97;14.43;;;;;;;;;;4420664;32;20233;-86
2023/11/15 12:05:58;;;;;;;23.63;16.03;;;;;;;;;;4422990;32;20258;-86
2023/11/15 12:08:25;;;;;;;20.53;15.93;;;;;;;;;;4432799;32;20221;-86
2023/11/15 12:10:56;;;;;;;17.17;9.63;;;;;;;;;;4427096;32;20228;-84
2023/11/15 12:13:22;;;;;;;12.87;6.83;;;;;;;;;;4434370;32;20721;-84
2023/11/15 12:15:50;;;;;;;10.70;7.70;;;;;;;;;;4431298;32;20289;-79
2023/11/15 12:18:17;;;;;;;8.60;6.07;;;;;;;;;;4426352;32;20263;-84
2023/11/15 12:20:46;;;;;;;8.63;6.17;;;;;;;;;;4436408;32;20656;-84
2023/11/15 12:23:14;;;;;;;14.43;7.60;;;;;;;;;;4430749;32;20236;-85
2023/11/15 12:25:47;;;;;;;14.53;9.67;;;;;;;;;;4423146;32;20795;-86
2023/11/15 12:28:16;;;;;;;16.70;10.70;;;;;;;;;;4420446;32;20240;-84
2023/11/15 12:30:44;;;;;;;24.17;12.50;;;;;;;;;;4420710;32;20229;-85
2023/11/15 12:33:12;;;;;;;22.87;14.37;;;;;;;;;;4420366;32;20311;-85
2023/11/15 12:35:41;;;;;;;23.33;14.90;;;;;;;;;;4429835;32;20715;-84
2023/11/15 12:38:11;;;;;;;23.37;13.27;;;;;;;;;;4420860;32;20236;-84
2023/11/15 12:40:39;;;;;;;17.60;12.67;;;;;;;;;;4405364;32;20228;-84
2023/11/15 12:43:19;;;;;;;17.80;10.10;;;;;;;;;;4411015;32;20271;-83
2023/11/15 12:45:46;;;;;;;12.77;8.30;;;;;;;;;;4404437;32;20226;-83
2023/11/15 12:48:13;;;;;;;16.60;10.23;;;;;;;;;;4404311;32;20245;-86
2023/11/15 12:50:42;;;;;;;28.57;17.00;;;;;;;;;;4404790;32;20229;-85
2023/11/15 12:53:10;;;;;;;28.37;16.73;;;;;;;;;;4404831;32;20259;-84
2023/11/15 12:55:46;;;;;;;32.43;18.00;;;;;;;;;;4404464;32;20711;-85
2023/11/15 12:58:14;;;;;;;25.93;15.90;;;;;;;;;;4404713;32;20282;-84
2023/11/15 13:00:57;;;;;;;22.53;15.37;;;;;;;;;;4406384;32;20778;-82
2023/11/15 13:03:26;;;;;;;36.10;22.33;;;;;;;;;;4414196;32;20257;-85
2023/11/15 13:05:57;;;;;;;15.37;9.80;;;;;;;;;;4419732;32;20251;-83
2023/11/15 13:08:25;;;;;;;13.03;7.63;;;;;;;;;;4420273;32;20297;-83
2023/11/15 13:10:52;;;;;;;9.50;6.30;;;;;;;;;;4420026;32;20318;-84
2023/11/15 13:13:19;;;;;;;7.87;5.53;;;;;;;;;;4419920;32;20241;-86
2023/11/15 13:15:47;;;;;;;3.33;2.43;;;;;;;;;;4419805;32;20282;-85
2023/11/15 13:18:14;;;;;;;3.83;2.33;;;;;;;;;;4419571;32;20272;-84
2023/11/15 13:20:41;;;;;;;3.83;2.50;;;;;;;;;;4419653;32;20395;-82
2023/11/15 13:23:08;;;;;;;4.63;3.30;;;;;;;;;;4420279;32;20245;-84
2023/11/15 13:25:37;;;;;;;3.80;2.47;;;;;;;;;;4420214;32;20241;-84
2023/11/15 13:28:04;;;;;;;3.13;1.57;;;;;;;;;;4423691;32;20241;-85
2023/11/15 13:30:32;;;;;;;3.60;1.97;;;;;;;;;;4419477;32;20368;-85
2023/11/15 13:33:00;;;;;;;2.80;1.43;;;;;;;;;;4419871;32;20255;-84
2023/11/15 13:35:27;;;;;;;2.93;2.30;;;;;;;;;;4419439;32;20282;-85
2023/11/15 13:37:55;;;;;;;3.93;2.40;;;;;;;;;;4419418;32;20232;-84
2023/11/15 13:40:23;;;;;;;6.03;3.77;;;;;;;;;;4419085;32;20229;-85
2023/11/15 13:42:51;;;;;;;4.93;3.50;;;;;;;;;;4418481;32;20292;-85
2023/11/15 13:45:18;;;;;;;5.17;3.00;;;;;;;;;;4419063;32;20245;-85
2023/11/15 13:47:46;;;;;;;9.73;3.60;;;;;;;;;;4419324;32;20247;-84
2023/11/15 13:50:15;;;;;;;35.17;19.97;;;;;;;;;;4418086;32;20258;-85
2023/11/15 13:52:42;;;;;;;23.53;12.47;;;;;;;;;;4428382;32;20236;-85
2023/11/15 13:55:09;;;;;;;7.83;5.23;;;;;;;;;;4419140;32;20257;-84
2023/11/15 13:57:38;;;;;;;8.67;4.93;;;;;;;;;;4418416;32;20250;-83
2023/11/15 14:00:07;;;;;;;13.10;6.47;;;;;;;;;;4419380;32;20225;-82
2023/11/15 14:02:34;;;;;;;15.13;8.40;;;;;;;;;;4418636;32;20244;-83
2023/11/15 14:05:05;;;;;;;11.77;8.43;;;;;;;;;;4418898;32;20217;-83
2023/11/15 14:07:33;;;;;;;14.03;8.80;;;;;;;;;;4419241;32;20295;-83
2023/11/15 14:10:00;;;;;;;16.07;10.30;;;;;;;;;;4419376;32;20300;-84
2023/11/15 14:12:27;;;;;;;16.37;11.00;;;;;;;;;;4420147;32;20253;-84